Airfield :
LOGIN :

Register | Disclaimer

   EN    FR    IT 

 










Legend :    VFR   Marginal VFR   IFR   Intensive IFR   Very Intensive IFR
Visi :
Ceiling :
>= 8 km
>= 3000ft
5 to 8 km
1000 to 3000 ft
1500m to 5 km
500 to 1000 ft
800 to 1500m
200 to 500 ft
< 800m
< 200 ft
Symbols :   Thunderstorms  Fog  Heavy snow  Heavy precipitations  Wind > 20 kt
SIGMETs :     Misc.  Thunderstorms  Icing  Turbulence  Mountain Waves  Volcanic Ashes







- Airport Elevation : 584 ft
- Download approach charts


LFPV - Villacoublay Vélizy

CURRENT METAR :
  • 260030Z AUTO 36009KT 330V040 9999 BKN036 06/M00 Q1032 NOSIG

EXPIRED METARs :
  • 260000Z AUTO 02010KT 9999 BKN035 06/M00 Q1032 NOSIG
  • 252330Z AUTO 03012G23KT 350V060 9999 OVC033 07/00 Q1032 NOSIG
  • 252300Z AUTO 02011KT 340V060 9999 OVC035 07/00 Q1032 NOSIG
  • 252230Z AUTO 01012G24KT 330V040 9999 OVC039 07/00 Q1032 NOSIG
  • 252200Z AUTO 01011KT 340V040 9999 OVC042 07/00 Q1032 NOSIG

TAF TAF LFPV
Valid from the 25 at 21:00 until the 26 at 21:00 UTC


252000Z 2521/2621 36010KT 9999 SCT025
No reported NOTAMs for that airfield.



MET'MAP, your aeronautical weather chart ! - Copyright ORBIFLY December 2007 - Disclaimer

ORBIFLY MET'MAP TEAM :

Programming & Development : Alexandra Zaïnal
Concept & Development : Baudouin d'Aumeries
Co-Development & Prog : Marc-Olivier Méhu
Technical & hardware support : Manuel Goepfert

Contact : metmap@orbifly.com




SOURCES & CREDITS :

   NOAA